メインページ
METAR-TAF:

METAR-TAF

空港 :

ウィーン国際空港

ウィーン, オーストリア

緯度: 48-07N, 経度: 016-34E, 海抜: 183m

現時点の気象観測

当レポートは38分前の18:50(UTC)に作成
南東の風 8kt
気温 20°C
湿度 60%
気圧 1019 hPa
視程10km以上
1,500メートル以下は雲なし、積乱雲なし

METAR: LOWW 181850Z 14008KT CAVOK 20/12 Q1019 NOSIG

時間: 21:28 (19:28 UTC)

予報

当レポートは2時間13分前の17:15(UTC)に作成
予報は18日の 18時(UTC)から 19日の 24時(UTC)まで有効
南東の風 8kt
視程10km以上
1,500メートル以下は雲なし、積乱雲なし
19日の 02時(UTC)から 19日の 04時(UTC)まで徐々に
変向風 2kt
19日の 10時(UTC)から 19日の 15時(UTC)まで一時的に
南西の風 8kt
視程10km以上
高度5000ftの雲はほとんどない, 積乱雲.
高度10000ftの雲は散在している

TAF: LOWW 181715Z 1818/1924 14008KT CAVOK TX26/1914Z TN14/1903Z BECMG 1902/1904 VRB02KT TEMPO 1910/1915 22008KT 9999 FEW050CB SCT100

4,000以上の空港の気象観測と天気予報(METAR報とTAF報)

利用可能な観測所は地図上に黄色い丸と赤い丸で示す。

丸の上にカーソルを重ねると観測所名を参照できる。

次にクリックすると気象観測と天気予報を参照できる。

マップの切り替え:黒色「×」印の緑ボタンをクリックして拡大、「-」印の緑ボタンをクリックして縮小、緑色の三角印をクリックして隣りの地図に切り替え


METAR-TAF: